Terminal Aerodrome Forecast
Issued by NWS

Home | Current Version | Previous Version | Text Only | Print | Product List | Glossary On
Versions: 1 2 3 4 5 6 7 8 9 10 11 12
000
FTPA31 PHFO 201728
TAFHJR
TAF
PHJR 201728Z 2018/2118 06004KT P6SM FEW030 SCT050
     FM202000 08009G17KT P6SM FEW030 SCT050
     FM210500 07004KT P6SM FEW030 SCT050=

USA.gov is the U.S. government's official web portal to all federal, state and local government web resources and services.